Time;durP1;ratioP1;P1;durP2;ratioP2;P2;SDS_P1;SDS_P2;PMS_P1;PMS_P2;Temp;Humidity;BMP_temperature;BMP_pressure;BME280_temperature;BME280_humidity;BME280_pressure;Samples;Min_cycle;Max_cycle;Signal;HPM_P1;HPM_P2
2022/11/23 00:01:19;;;;;;;2.33;0.65;;;20.40;47.50;;;;;;5092545;28;20079;-44
2022/11/23 00:03:48;;;;;;;5.70;1.27;;;20.50;47.50;;;;;;5110697;28;20434;-46
2022/11/23 00:06:15;;;;;;;3.70;0.85;;;20.40;47.40;;;;;;5110646;28;20135;-44
2022/11/23 00:08:43;;;;;;;3.63;0.50;;;20.40;47.50;;;;;;5110257;28;20171;-45
2022/11/23 00:11:11;;;;;;;3.15;1.35;;;20.40;47.40;;;;;;5110865;28;20127;-44
2022/11/23 00:13:39;;;;;;;3.13;0.60;;;20.40;47.40;;;;;;5110656;28;20043;-46
2022/11/23 00:16:07;;;;;;;4.50;0.82;;;20.40;47.40;;;;;;5110547;28;20507;-45
2022/11/23 00:18:34;;;;;;;4.82;0.80;;;20.40;47.40;;;;;;5110454;28;20094;-45
2022/11/23 00:21:06;;;;;;;1.67;0.30;;;20.40;47.50;;;;;;5110666;28;20105;-49
2022/11/23 00:23:34;;;;;;;3.88;0.52;;;20.40;47.40;;;;;;5110413;28;20042;-44
2022/11/23 00:26:01;;;;;;;8.82;1.38;;;20.40;47.40;;;;;;5110101;28;20078;-44
2022/11/23 00:28:30;;;;;;;3.03;1.08;;;20.40;47.40;;;;;;5110407;28;20620;-44
2022/11/23 00:30:57;;;;;;;3.67;0.50;;;20.40;47.40;;;;;;5092424;28;20039;-44
2022/11/23 00:33:24;;;;;;;3.53;0.50;;;20.40;47.30;;;;;;5090291;28;20044;-44
2022/11/23 00:36:00;;;;;;;3.63;0.60;;;20.30;47.30;;;;;;5084809;28;20067;-45
2022/11/23 00:38:27;;;;;;;3.90;0.50;;;20.30;47.40;;;;;;5092000;28;20035;-44
2022/11/23 00:40:59;;;;;;;2.08;0.52;;;20.40;47.50;;;;;;5110476;28;20051;-45
2022/11/23 00:43:26;;;;;;;1.58;0.35;;;20.40;47.50;;;;;;5110301;28;20055;-49
2022/11/23 00:46:07;;;;;;;4.22;0.63;;;20.30;47.40;;;;;;5096230;28;20044;-48
2022/11/23 00:48:35;;;;;;;2.45;0.38;;;20.40;47.50;;;;;;5089751;28;20055;-45
2022/11/23 00:51:03;;;;;;;1.45;0.32;;;20.30;47.40;;;;;;5089916;28;20036;-46
2022/11/23 00:53:30;;;;;;;3.13;0.77;;;20.30;47.30;;;;;;5091149;28;20127;-44
2022/11/23 00:55:58;;;;;;;1.58;0.45;;;20.30;47.30;;;;;;5091994;28;20031;-47
2022/11/23 00:58:26;;;;;;;1.25;0.82;;;20.30;47.30;;;;;;5110130;28;20789;-45
2022/11/23 01:01:03;;;;;;;4.00;0.52;;;20.30;47.20;;;;;;5091916;28;20497;-46
2022/11/23 01:03:32;;;;;;;2.17;0.38;;;20.30;47.30;;;;;;5091596;28;20046;-44
2022/11/23 01:06:08;;;;;;;3.42;0.57;;;20.30;47.30;;;;;;5091664;28;20043;-44
2022/11/23 01:08:35;;;;;;;1.10;0.30;;;20.30;47.30;;;;;;5109670;28;20044;-44
2022/11/23 01:11:05;;;;;;;2.53;0.65;;;20.30;47.30;;;;;;5091275;28;20040;-46
2022/11/23 01:13:35;;;;;;;4.20;0.75;;;20.30;47.30;;;;;;5109708;28;20042;-47
2022/11/23 01:16:04;;;;;;;4.50;0.47;;;20.30;47.30;;;;;;5109688;28;20040;-44
2022/11/23 01:18:31;;;;;;;2.55;0.22;;;20.30;47.30;;;;;;5116334;27;20068;-48
2022/11/23 01:21:01;;;;;;;2.95;0.20;;;20.30;47.30;;;;;;5070853;28;20044;-45
2022/11/23 01:23:28;;;;;;;2.38;0.75;;;20.30;47.20;;;;;;5091544;28;20540;-46
2022/11/23 01:25:55;;;;;;;3.97;0.70;;;20.30;47.20;;;;;;5091015;28;20043;-46
2022/11/23 01:28:23;;;;;;;0.98;0.40;;;20.30;47.30;;;;;;5109400;28;20602;-49
2022/11/23 01:30:50;;;;;;;7.75;0.40;;;20.30;47.20;;;;;;5074373;28;20128;-44
2022/11/23 01:33:18;;;;;;;1.25;0.10;;;20.30;47.30;;;;;;5109253;28;20068;-46
2022/11/23 01:35:47;;;;;;;4.00;0.65;;;20.30;47.30;;;;;;5090333;28;20079;-44
2022/11/23 01:38:14;;;;;;;4.32;0.30;;;20.20;47.20;;;;;;5108923;28;20043;-45
2022/11/23 01:40:42;;;;;;;2.05;0.70;;;20.20;47.30;;;;;;5109107;28;20152;-45
2022/11/23 01:43:15;;;;;;;2.08;0.30;;;20.20;47.30;;;;;;5090286;28;20534;-46
2022/11/23 01:45:44;;;;;;;4.35;0.30;;;20.20;47.30;;;;;;5108995;28;20044;-46
2022/11/23 01:48:17;;;;;;;1.48;0.10;;;20.20;47.30;;;;;;5108600;28;20050;-45
2022/11/23 01:50:49;;;;;;;2.92;0.22;;;20.20;47.40;;;;;;5108700;28;20092;-44
2022/11/23 01:53:16;;;;;;;1.02;0.10;;;20.20;47.40;;;;;;5104923;27;20070;-46
2022/11/23 01:55:46;;;;;;;0.65;0.30;;;20.20;47.40;;;;;;5128893;27;20045;-44
2022/11/23 01:58:16;;;;;;;3.10;0.65;;;20.20;47.40;;;;;;5110820;27;20103;-47
2022/11/23 02:00:43;;;;;;;5.10;1.10;;;20.20;47.40;;;;;;5110819;27;20511;-44
2022/11/23 02:03:10;;;;;;;3.08;0.40;;;20.20;47.40;;;;;;5110495;27;20043;-44
2022/11/23 02:05:43;;;;;;;3.40;0.20;;;20.20;47.30;;;;;;5128864;27;20071;-44
2022/11/23 02:08:16;;;;;;;1.20;0.30;;;20.20;47.30;;;;;;5093892;27;20097;-45
2022/11/23 02:10:45;;;;;;;6.53;0.40;;;20.20;47.40;;;;;;5088345;28;20052;-44
2022/11/23 02:13:13;;;;;;;1.23;0.20;;;20.10;47.40;;;;;;5088459;28;20066;-45
2022/11/23 02:15:41;;;;;;;2.15;0.20;;;20.20;47.40;;;;;;5098660;28;20054;-45
2022/11/23 02:18:14;;;;;;;1.13;0.93;;;20.20;47.50;;;;;;5108252;28;20038;-44
2022/11/23 02:20:42;;;;;;;3.53;0.57;;;20.20;47.30;;;;;;5108151;28;20043;-47
2022/11/23 02:23:21;;;;;;;2.15;0.32;;;20.20;47.30;;;;;;5108474;28;20048;-44
2022/11/23 02:25:58;;;;;;;2.97;0.40;;;20.20;47.30;;;;;;5088043;28;20048;-47
2022/11/23 02:28:29;;;;;;;1.20;0.20;;;20.20;47.30;;;;;;5069823;28;20051;-45
2022/11/23 02:30:56;;;;;;;2.92;0.98;;;20.20;47.20;;;;;;5088173;28;20044;-46
2022/11/23 02:33:24;;;;;;;0.82;0.13;;;20.20;47.20;;;;;;5069508;28;20489;-44
2022/11/23 02:35:53;;;;;;;3.08;0.20;;;20.20;47.30;;;;;;5082145;28;20051;-46
2022/11/23 02:38:24;;;;;;;2.55;0.38;;;20.10;47.30;;;;;;5107885;28;20152;-44
2022/11/23 02:40:52;;;;;;;2.92;0.65;;;20.10;47.20;;;;;;5089842;28;20055;-45
2022/11/23 02:43:22;;;;;;;1.30;0.30;;;20.20;47.30;;;;;;5086489;28;20056;-44
2022/11/23 02:45:52;;;;;;;1.50;0.45;;;20.20;47.30;;;;;;5086475;28;20059;-44
2022/11/23 02:48:19;;;;;;;0.85;0.20;;;20.20;47.30;;;;;;5085928;28;20535;-45
2022/11/23 02:50:47;;;;;;;1.10;0.20;;;20.20;47.40;;;;;;5088172;28;20056;-45
2022/11/23 02:53:14;;;;;;;1.63;0.95;;;20.10;47.30;;;;;;5086795;28;20127;-45
2022/11/23 02:55:41;;;;;;;3.63;0.50;;;20.10;47.30;;;;;;5079722;28;20492;-44
2022/11/23 02:58:10;;;;;;;1.73;0.20;;;20.10;47.30;;;;;;5066384;28;20048;-44
2022/11/23 03:00:37;;;;;;;1.30;0.10;;;20.10;47.40;;;;;;5066141;28;20064;-44
2022/11/23 03:03:05;;;;;;;3.60;0.30;;;20.10;47.40;;;;;;5067202;28;20048;-44
2022/11/23 03:05:33;;;;;;;1.00;0.17;;;20.10;47.40;;;;;;5067611;28;20045;-44
2022/11/23 03:08:04;;;;;;;2.30;0.20;;;20.10;47.40;;;;;;5069161;28;20114;-44
2022/11/23 03:10:32;;;;;;;1.00;0.30;;;20.10;47.40;;;;;;5071643;28;20501;-44
2022/11/23 03:12:59;;;;;;;0.95;0.22;;;20.10;47.40;;;;;;5070445;28;20087;-44
2022/11/23 03:15:29;;;;;;;3.20;0.20;;;20.10;47.40;;;;;;5078979;28;20051;-44
2022/11/23 03:17:57;;;;;;;1.48;0.28;;;20.10;47.50;;;;;;5089506;28;20463;-44
2022/11/23 03:20:25;;;;;;;1.00;0.10;;;20.10;47.50;;;;;;5090147;28;20101;-47
2022/11/23 03:22:53;;;;;;;0.93;0.40;;;20.10;47.50;;;;;;5090268;28;20086;-46
2022/11/23 03:25:22;;;;;;;2.63;0.13;;;20.10;47.50;;;;;;5090081;28;20040;-45
2022/11/23 03:27:52;;;;;;;1.77;0.15;;;20.10;47.50;;;;;;5089904;28;20048;-43
2022/11/23 03:30:21;;;;;;;0.82;0.20;;;20.10;47.60;;;;;;5091250;28;20528;-45
2022/11/23 03:32:50;;;;;;;3.65;0.32;;;20.10;47.50;;;;;;5089507;28;20127;-47
2022/11/23 03:35:18;;;;;;;2.75;0.20;;;20.10;47.50;;;;;;5091089;28;20044;-46
2022/11/23 03:38:08;;;;;;;2.20;0.20;;;20.10;47.50;;;;;;5078058;28;20048;-45
2022/11/23 03:40:36;;;;;;;2.40;0.20;;;20.10;47.50;;;;;;5069492;28;20048;-45
2022/11/23 03:43:24;;;;;;;2.30;0.10;;;20.10;47.60;;;;;;5069208;28;20052;-47
2022/11/23 03:45:52;;;;;;;1.25;0.28;;;20.10;47.50;;;;;;5086205;28;20067;-45
2022/11/23 03:48:20;;;;;;;6.13;0.40;;;20.10;47.50;;;;;;5089229;28;20044;-44
2022/11/23 03:50:47;;;;;;;1.55;0.10;;;20.10;47.50;;;;;;5089604;28;20500;-45
2022/11/23 03:53:15;;;;;;;0.95;0.10;;;20.10;47.50;;;;;;5089470;28;20496;-44
2022/11/23 03:55:45;;;;;;;3.13;0.63;;;20.10;47.40;;;;;;5072812;28;20047;-44
2022/11/23 03:58:13;;;;;;;3.45;0.75;;;20.10;47.40;;;;;;5089223;28;20094;-47
2022/11/23 04:00:41;;;;;;;0.90;0.15;;;20.10;47.50;;;;;;5099207;28;20084;-44
2022/11/23 04:03:10;;;;;;;4.57;0.28;;;20.10;47.50;;;;;;5109129;28;20134;-44
2022/11/23 04:06:05;;;;;;;1.88;0.20;;;20.10;47.40;;;;;;5067470;28;20055;-44
2022/11/23 04:08:51;;;;;;;1.70;0.10;;;20.10;47.40;;;;;;5067524;28;20044;-46
2022/11/23 04:11:31;;;;;;;6.20;0.20;;;20.10;47.50;;;;;;5067698;28;20424;-44
2022/11/23 04:13:58;;;;;;;3.22;0.32;;;20.10;47.50;;;;;;5067410;28;20048;-44
2022/11/23 04:16:25;;;;;;;4.38;0.50;;;20.10;47.50;;;;;;5029729;28;20091;-44
2022/11/23 04:18:52;;;;;;;3.55;0.10;;;20.10;47.50;;;;;;5046587;28;20087;-43
2022/11/23 04:21:21;;;;;;;1.45;0.13;;;20.10;47.50;;;;;;5030127;28;20147;-44
2022/11/23 04:23:48;;;;;;;2.75;0.40;;;20.10;47.50;;;;;;5032176;28;20049;-44
2022/11/23 04:26:16;;;;;;;1.23;0.20;;;20.10;47.50;;;;;;5047402;28;20126;-46
2022/11/23 04:28:45;;;;;;;2.25;0.22;;;20.10;47.50;;;;;;5047160;28;20049;-47
2022/11/23 04:31:13;;;;;;;4.63;0.20;;;20.10;47.50;;;;;;5046339;28;20138;-44
2022/11/23 04:34:00;;;;;;;2.30;0.20;;;20.10;47.50;;;;;;5029640;28;20061;-45
2022/11/23 04:36:29;;;;;;;2.70;0.57;;;20.10;47.50;;;;;;5027733;28;20053;-45
2022/11/23 04:38:56;;;;;;;2.70;0.17;;;20.10;47.50;;;;;;5046725;28;20132;-46
2022/11/23 04:41:34;;;;;;;2.38;0.70;;;20.10;47.60;;;;;;5030264;28;20111;-44
2022/11/23 04:44:03;;;;;;;4.40;1.00;;;20.10;47.50;;;;;;5080244;28;20071;-45
2022/11/23 04:46:30;;;;;;;4.15;0.90;;;20.10;47.60;;;;;;5084980;28;20046;-47
2022/11/23 04:48:59;;;;;;;1.77;0.15;;;20.10;47.50;;;;;;5086508;28;20056;-46
2022/11/23 04:51:28;;;;;;;2.58;0.22;;;20.10;47.50;;;;;;5070746;28;20044;-43
2022/11/23 04:53:55;;;;;;;5.28;0.50;;;20.20;47.60;;;;;;5088272;28;20094;-43
2022/11/23 04:56:23;;;;;;;5.45;0.20;;;20.10;47.60;;;;;;5087727;28;20492;-44
2022/11/23 04:58:50;;;;;;;5.25;0.35;;;20.20;47.70;;;;;;5087253;28;20143;-45
2022/11/23 05:01:17;;;;;;;2.03;0.25;;;20.10;47.60;;;;;;5086127;28;20561;-44
2022/11/23 05:04:04;;;;;;;4.28;0.98;;;20.20;47.80;;;;;;5087007;28;20058;-45
2022/11/23 05:06:33;;;;;;;3.95;0.32;;;20.20;47.90;;;;;;5087495;28;20051;-45
2022/11/23 05:09:00;;;;;;;1.85;0.20;;;20.20;47.80;;;;;;5087493;28;20040;-45
2022/11/23 05:11:47;;;;;;;6.22;0.13;;;20.20;47.80;;;;;;5087088;28;20487;-45
2022/11/23 05:14:14;;;;;;;3.83;0.15;;;20.20;47.80;;;;;;5086832;28;20048;-45
2022/11/23 05:16:41;;;;;;;2.95;0.95;;;20.20;47.80;;;;;;5087282;28;20555;-44
2022/11/23 05:19:09;;;;;;;4.57;0.20;;;20.20;47.80;;;;;;5087070;28;20048;-44
2022/11/23 05:21:37;;;;;;;1.50;0.20;;;20.20;47.80;;;;;;5083689;28;20119;-45
2022/11/23 05:24:05;;;;;;;1.85;0.32;;;20.20;47.80;;;;;;5087285;28;20306;-45
2022/11/23 05:26:32;;;;;;;1.48;0.10;;;20.20;47.70;;;;;;5087241;28;20094;-44
2022/11/23 05:28:59;;;;;;;1.80;0.10;;;20.20;47.70;;;;;;5086517;28;20044;-44
2022/11/23 05:31:27;;;;;;;2.45;0.15;;;20.20;47.70;;;;;;5086655;28;20113;-44
2022/11/23 05:33:54;;;;;;;0.85;0.20;;;20.20;47.70;;;;;;5087158;28;20062;-44
2022/11/23 05:36:33;;;;;;;0.95;0.15;;;20.20;47.70;;;;;;5086306;28;20040;-47
2022/11/23 05:39:02;;;;;;;2.90;0.10;;;20.20;47.70;;;;;;5088535;28;20066;-45
2022/11/23 05:41:32;;;;;;;2.28;0.50;;;20.20;47.70;;;;;;5087199;28;20115;-45
2022/11/23 05:44:02;;;;;;;4.30;0.65;;;20.20;47.80;;;;;;5082195;28;20131;-47
2022/11/23 05:46:30;;;;;;;1.17;0.10;;;20.20;48.00;;;;;;5079128;28;20147;-48
2022/11/23 05:48:57;;;;;;;8.05;0.20;;;20.20;48.10;;;;;;5082378;28;20036;-51
2022/11/23 05:51:25;;;;;;;6.65;0.20;;;20.20;48.30;;;;;;5086609;28;20127;-47
2022/11/23 05:53:52;;;;;;;2.00;0.20;;;20.30;48.40;;;;;;5085127;28;20040;-48
2022/11/23 05:56:29;;;;;;;6.18;0.35;;;20.30;48.40;;;;;;5086919;28;20032;-48
2022/11/23 05:59:07;;;;;;;1.65;0.28;;;20.30;48.30;;;;;;5087183;28;20048;-46
2022/11/23 06:01:37;;;;;;;1.70;0.20;;;20.30;48.20;;;;;;5059449;28;20063;-45
2022/11/23 06:04:06;;;;;;;3.92;0.10;;;20.30;48.60;;;;;;5087915;28;20078;-49
2022/11/23 06:06:37;;;;;;;3.45;0.30;;;20.30;49.80;;;;;;5071364;28;20044;-50
2022/11/23 06:09:05;;;;;;;7.15;0.47;;;20.40;50.70;;;;;;5086779;28;20040;-57
2022/11/23 06:11:35;;;;;;;3.88;1.30;;;20.40;51.20;;;;;;5073294;28;20046;-47
2022/11/23 06:14:09;;;;;;;4.30;0.57;;;20.50;51.70;;;;;;5083713;28;20051;-47
2022/11/23 06:16:37;;;;;;;5.60;0.30;;;20.60;51.90;;;;;;5086584;28;20602;-51
2022/11/23 06:19:18;;;;;;;2.42;0.20;;;20.60;51.80;;;;;;5096277;28;20071;-47
2022/11/23 06:21:45;;;;;;;4.05;0.20;;;20.60;52.30;;;;;;5080138;28;20118;-53
2022/11/23 06:24:13;;;;;;;4.47;0.30;;;20.70;52.50;;;;;;5073886;28;20051;-54
2022/11/23 06:26:41;;;;;;;3.53;0.50;;;20.70;52.60;;;;;;5086138;28;20110;-53
2022/11/23 06:29:08;;;;;;;4.15;0.10;;;20.80;52.60;;;;;;5086582;28;20043;-49
2022/11/23 06:31:36;;;;;;;2.47;0.25;;;20.80;52.70;;;;;;5086244;28;20151;-48
2022/11/23 06:34:03;;;;;;;2.67;0.55;;;20.80;52.90;;;;;;5087474;28;20066;-50
2022/11/23 06:36:32;;;;;;;2.25;0.30;;;20.90;53.00;;;;;;5086285;28;20462;-55
2022/11/23 06:38:59;;;;;;;2.05;0.68;;;20.90;53.00;;;;;;5086338;28;20587;-58
2022/11/23 06:41:27;;;;;;;4.95;0.20;;;21.00;52.90;;;;;;5085425;28;20043;-56
2022/11/23 06:43:57;;;;;;;9.85;0.10;;;21.00;52.90;;;;;;5083918;28;20074;-60
2022/11/23 06:46:34;;;;;;;3.22;0.22;;;21.10;53.00;;;;;;5083533;28;20044;-54
2022/11/23 06:49:02;;;;;;;6.32;0.13;;;21.10;52.90;;;;;;5084030;28;20036;-55
2022/11/23 06:51:29;;;;;;;1.40;0.10;;;21.10;52.80;;;;;;5083843;28;20068;-52
2022/11/23 06:53:56;;;;;;;6.20;0.20;;;21.10;52.80;;;;;;5087352;28;20088;-52
2022/11/23 06:56:24;;;;;;;11.13;0.30;;;21.20;52.60;;;;;;5086266;28;20119;-47
2022/11/23 06:58:51;;;;;;;1.85;0.22;;;21.20;52.40;;;;;;5096745;28;20136;-42
2022/11/23 07:01:24;;;;;;;3.20;0.65;;;21.20;52.60;;;;;;5085205;28;20056;-44
2022/11/23 07:03:56;;;;;;;5.68;0.35;;;21.20;52.10;;;;;;5085798;28;20044;-48
2022/11/23 07:06:29;;;;;;;4.32;0.60;;;21.10;52.10;;;;;;5086234;28;20080;-46
2022/11/23 07:09:01;;;;;;;3.35;0.43;;;21.20;52.40;;;;;;5085629;28;20040;-47
2022/11/23 07:11:51;;;;;;;7.65;0.77;;;21.20;52.50;;;;;;5087190;28;20122;-47
2022/11/23 07:14:18;;;;;;;5.97;0.20;;;21.30;52.60;;;;;;5085981;28;20040;-46
2022/11/23 07:16:49;;;;;;;7.35;0.30;;;21.40;52.30;;;;;;5085931;28;20044;-47
2022/11/23 07:19:16;;;;;;;1.85;0.73;;;21.60;52.60;;;;;;5086362;28;20129;-47
2022/11/23 07:21:45;;;;;;;5.25;0.30;;;21.60;52.40;;;;;;5083780;28;20139;-46
2022/11/23 07:24:12;;;;;;;1.50;0.35;;;21.70;53.00;;;;;;5085359;28;20055;-51
2022/11/23 07:26:39;;;;;;;1.92;0.10;;;21.90;52.90;;;;;;5085380;28;20036;-48
2022/11/23 07:29:06;;;;;;;3.75;0.40;;;22.00;53.70;;;;;;5085718;28;20105;-50
2022/11/23 07:31:33;;;;;;;5.85;0.93;;;22.10;54.20;;;;;;5096597;28;20051;-52
2022/11/23 07:34:02;;;;;;;3.30;0.40;;;22.30;54.30;;;;;;5091283;28;20215;-52
2022/11/23 07:36:29;;;;;;;2.40;0.25;;;22.40;54.70;;;;;;5085223;28;20032;-49
2022/11/23 07:38:57;;;;;;;6.47;2.63;;;22.60;55.40;;;;;;5085541;28;20044;-57
2022/11/23 07:41:26;;;;;;;3.05;0.32;;;22.70;55.30;;;;;;5085817;28;20040;-63
2022/11/23 07:44:05;;;;;;;2.38;0.57;;;22.80;55.10;;;;;;5085873;28;20128;-50
2022/11/23 07:46:32;;;;;;;7.45;0.40;;;22.90;55.40;;;;;;5084384;28;20139;-48
2022/11/23 07:49:01;;;;;;;4.45;0.32;;;22.90;55.00;;;;;;5084588;28;20839;-51
2022/11/23 07:51:29;;;;;;;3.40;0.85;;;23.00;53.80;;;;;;5086910;28;20137;-50
2022/11/23 07:53:56;;;;;;;2.88;0.30;;;23.10;53.20;;;;;;5089194;28;20500;-49
2022/11/23 07:56:24;;;;;;;3.58;0.25;;;23.00;52.90;;;;;;5090567;28;20040;-51
2022/11/23 07:58:51;;;;;;;3.35;0.47;;;23.00;52.50;;;;;;5090532;28;20036;-52
2022/11/23 08:01:19;;;;;;;2.10;0.30;;;22.90;52.40;;;;;;5090291;28;20568;-57
2022/11/23 08:03:46;;;;;;;4.75;0.70;;;22.90;52.50;;;;;;5087247;28;20731;-51
2022/11/23 08:06:14;;;;;;;3.65;0.82;;;22.70;52.40;;;;;;5090310;28;20455;-49
2022/11/23 08:08:43;;;;;;;2.42;0.10;;;22.70;52.70;;;;;;5091023;28;20465;-49
2022/11/23 08:11:13;;;;;;;0.85;0.10;;;22.70;52.70;;;;;;5090691;28;20727;-47
2022/11/23 08:13:40;;;;;;;1.38;0.10;;;22.60;52.60;;;;;;5090354;28;20550;-49
2022/11/23 08:16:07;;;;;;;4.70;0.90;;;22.60;52.50;;;;;;5089086;28;20067;-48
2022/11/23 08:18:34;;;;;;;1.90;0.20;;;22.50;52.50;;;;;;5088684;28;20123;-55
2022/11/23 08:21:02;;;;;;;11.80;0.60;;;22.50;53.10;;;;;;5090382;28;20416;-52
2022/11/23 08:23:29;;;;;;;1.85;0.10;;;22.50;53.30;;;;;;5089993;28;20063;-52
2022/11/23 08:25:58;;;;;;;1.73;0.20;;;22.40;53.00;;;;;;5090199;28;20054;-47
2022/11/23 08:28:25;;;;;;;2.58;0.10;;;22.40;53.40;;;;;;5090270;28;20122;-50
2022/11/23 08:30:52;;;;;;;0.95;0.10;;;22.40;53.20;;;;;;5090198;28;20040;-55
2022/11/23 08:33:19;;;;;;;2.08;0.65;;;22.30;53.40;;;;;;5090101;28;20068;-52
2022/11/23 08:35:46;;;;;;;1.65;0.20;;;22.30;53.20;;;;;;5094093;28;20051;-48
2022/11/23 08:38:13;;;;;;;1.17;0.20;;;22.30;53.20;;;;;;5081995;28;20105;-51
2022/11/23 08:40:40;;;;;;;0.50;0.10;;;22.30;53.50;;;;;;5086426;28;20038;-51
2022/11/23 08:43:09;;;;;;;3.53;0.40;;;22.30;53.70;;;;;;5092615;28;20039;-49
2022/11/23 08:45:37;;;;;;;3.97;0.10;;;22.30;53.90;;;;;;5088930;28;20089;-55
2022/11/23 08:48:05;;;;;;;1.13;0.10;;;22.30;53.70;;;;;;5091014;28;20056;-49
2022/11/23 08:50:34;;;;;;;1.95;0.38;;;22.30;53.60;;;;;;5108339;28;20043;-52
2022/11/23 08:53:01;;;;;;;1.55;0.15;;;22.30;53.10;;;;;;5109314;28;20051;-49
2022/11/23 08:55:29;;;;;;;0.77;0.28;;;22.30;53.40;;;;;;5108442;28;20409;-50
2022/11/23 08:57:56;;;;;;;1.58;0.20;;;22.30;53.40;;;;;;5103846;28;20063;-52
2022/11/23 09:00:25;;;;;;;18.58;0.38;;;22.20;53.20;;;;;;5100354;28;20463;-47
2022/11/23 09:02:52;;;;;;;1.30;0.10;;;22.20;53.50;;;;;;5090771;28;20115;-45
2022/11/23 09:05:19;;;;;;;0.63;0.38;;;22.20;53.60;;;;;;5109030;27;20035;-47
2022/11/23 09:07:46;;;;;;;1.40;0.20;;;22.10;53.70;;;;;;5110172;27;20072;-46
2022/11/23 09:10:13;;;;;;;5.35;0.35;;;22.10;53.90;;;;;;5115245;27;20039;-49
2022/11/23 09:12:41;;;;;;;2.47;0.47;;;22.10;53.80;;;;;;5110385;28;20043;-47
2022/11/23 09:15:09;;;;;;;2.67;0.35;;;22.10;53.90;;;;;;5109460;28;20038;-47
2022/11/23 09:17:37;;;;;;;0.82;0.40;;;22.10;53.90;;;;;;5109331;28;20040;-49
2022/11/23 09:20:05;;;;;;;2.38;0.38;;;22.10;54.00;;;;;;5108038;28;20130;-57
2022/11/23 09:22:32;;;;;;;2.17;0.30;;;22.00;54.00;;;;;;5109013;28;20046;-48
2022/11/23 09:25:00;;;;;;;1.35;0.20;;;22.00;54.30;;;;;;5107885;28;20508;-55
2022/11/23 09:27:27;;;;;;;0.82;0.40;;;22.00;54.20;;;;;;5107174;28;20051;-49
2022/11/23 09:29:54;;;;;;;0.40;0.20;;;22.00;54.00;;;;;;5095690;28;20074;-49
2022/11/23 09:32:21;;;;;;;0.90;0.10;;;22.00;53.70;;;;;;5103735;28;20043;-51
2022/11/23 09:34:49;;;;;;;1.67;0.20;;;21.90;53.80;;;;;;5105805;28;20040;-49
2022/11/23 09:37:16;;;;;;;0.35;0.10;;;21.90;53.50;;;;;;5108666;28;20515;-54
2022/11/23 09:39:43;;;;;;;1.20;0.20;;;21.90;53.60;;;;;;5107352;28;20054;-55
2022/11/23 09:42:30;;;;;;;1.85;0.20;;;21.90;53.70;;;;;;5104632;28;20162;-50
2022/11/23 09:45:14;;;;;;;;;;;21.90;53.50;;;;;;5104343;28;20044;-56
2022/11/23 09:48:06;;;;;;;0.57;0.10;;;21.80;54.10;;;;;;5108223;28;19966;-54
2022/11/23 09:50:46;;;;;;;0.50;0.20;;;21.70;54.20;;;;;;5107888;28;20127;-56
2022/11/23 09:53:18;;;;;;;0.77;0.10;;;21.80;54.00;;;;;;5108262;28;20039;-57
2022/11/23 09:55:47;;;;;;;0.85;0.10;;;21.70;53.80;;;;;;5106007;28;20122;-56
2022/11/23 09:58:17;;;;;;;0.10;0.10;;;21.80;54.10;;;;;;5108264;28;20059;-54
2022/11/23 10:00:48;;;;;;;0.43;0.00;;;21.70;54.00;;;;;;5109942;27;20063;-56
2022/11/23 10:03:17;;;;;;;0.90;0.45;;;21.80;53.70;;;;;;5078774;28;20056;-56
2022/11/23 10:05:55;;;;;;;0.82;0.32;;;21.70;53.70;;;;;;5054905;28;20452;-49
2022/11/23 10:08:36;;;;;;;0.90;0.10;;;21.70;53.60;;;;;;5064226;28;20145;-53
2022/11/23 10:11:21;;;;;;;0.73;0.10;;;21.80;53.80;;;;;;5067836;28;20043;-58
2022/11/23 10:13:57;;;;;;;0.93;0.30;;;21.80;53.70;;;;;;5056717;28;20083;-59
2022/11/23 10:16:35;;;;;;;0.80;0.20;;;21.70;53.70;;;;;;5063176;28;20848;-57
2022/11/23 10:19:12;;;;;;;3.40;0.10;;;21.70;53.90;;;;;;5063493;28;20086;-54
2022/11/23 10:21:52;;;;;;;1.63;0.08;;;21.70;53.80;;;;;;5061300;28;20051;-59
2022/11/23 10:24:27;;;;;;;2.20;0.35;;;21.80;53.80;;;;;;5064403;28;20036;-59
2022/11/23 10:26:54;;;;;;;0.13;0.10;;;21.70;54.00;;;;;;5055819;28;20581;-59
2022/11/23 10:29:28;;;;;;;0.10;0.00;;;21.70;53.90;;;;;;5055441;28;20046;-50
2022/11/23 10:31:55;;;;;;;0.40;0.38;;;21.80;53.80;;;;;;5060003;28;20121;-55
2022/11/23 10:34:37;;;;;;;0.75;0.10;;;21.70;53.70;;;;;;5062060;28;20025;-50
2022/11/23 10:37:11;;;;;;;0.77;0.10;;;21.80;53.50;;;;;;5061154;28;20043;-56
2022/11/23 10:39:38;;;;;;;0.20;0.10;;;21.70;53.30;;;;;;5057354;28;20036;-56
2022/11/23 10:42:19;;;;;;;1.45;0.10;;;21.70;53.50;;;;;;5061389;28;20040;-51
2022/11/23 10:44:49;;;;;;;0.75;0.10;;;21.70;53.40;;;;;;5062614;28;20072;-56
2022/11/23 10:47:35;;;;;;;1.00;0.10;;;21.70;53.70;;;;;;5056336;28;20041;-57
2022/11/23 10:50:02;;;;;;;1.08;0.10;;;21.70;54.40;;;;;;5059688;28;20072;-55
2022/11/23 10:52:32;;;;;;;2.78;0.10;;;21.70;53.90;;;;;;5064892;28;20527;-61
2022/11/23 10:55:01;;;;;;;0.43;0.20;;;21.70;53.90;;;;;;5065072;28;20048;-57
2022/11/23 10:57:33;;;;;;;0.45;0.08;;;21.70;54.10;;;;;;5062411;28;20037;-62
2022/11/23 11:00:04;;;;;;;0.52;0.10;;;21.70;53.90;;;;;;5063936;28;21266;-61
2022/11/23 11:02:39;;;;;;;0.65;0.10;;;21.70;53.80;;;;;;5054891;28;20135;-61
2022/11/23 11:05:21;;;;;;;1.77;0.10;;;21.80;53.90;;;;;;5058301;28;20501;-61
2022/11/23 11:07:49;;;;;;;0.68;0.00;;;21.80;54.00;;;;;;5055772;28;20048;-59
2022/11/23 11:10:35;;;;;;;1.75;0.57;;;21.80;54.10;;;;;;5063733;28;20052;-64
2022/11/23 11:13:02;;;;;;;0.20;0.00;;;21.90;53.90;;;;;;5061557;28;20041;-58
2022/11/23 11:15:29;;;;;;;0.20;0.10;;;21.80;54.00;;;;;;5055972;28;20657;-50
2022/11/23 11:17:58;;;;;;;0.70;0.00;;;21.80;54.00;;;;;;5059618;28;20558;-55
2022/11/23 11:20:33;;;;;;;0.10;0.00;;;21.90;54.30;;;;;;5060610;28;20040;-57
2022/11/23 11:23:04;;;;;;;0.53;0.00;;;21.90;54.40;;;;;;5057726;28;20044;-56
2022/11/23 11:25:35;;;;;;;0.47;0.00;;;21.90;54.40;;;;;;5062783;28;20567;-57
2022/11/23 11:28:04;;;;;;;0.10;0.00;;;21.90;54.20;;;;;;5065230;28;20105;-56
2022/11/23 11:30:45;;;;;;;0.30;0.10;;;21.90;54.30;;;;;;5069183;28;20521;-55
2022/11/23 11:33:19;;;;;;;1.38;0.00;;;22.00;54.40;;;;;;5063331;28;20029;-52
2022/11/23 11:35:49;;;;;;;0.30;0.10;;;22.00;54.50;;;;;;5059470;28;20102;-56
2022/11/23 11:38:22;;;;;;;0.10;0.03;;;22.00;54.60;;;;;;5070051;28;20512;-57
2022/11/23 11:40:51;;;;;;;0.03;0.00;;;22.00;54.50;;;;;;5063408;28;20040;-59
2022/11/23 11:43:22;;;;;;;0.00;0.00;;;22.00;54.50;;;;;;5063933;28;20045;-56
2022/11/23 11:45:54;;;;;;;0.82;0.00;;;22.10;54.40;;;;;;5066692;28;20394;-57
2022/11/23 11:48:27;;;;;;;0.10;0.00;;;22.10;54.40;;;;;;5060898;28;20540;-55
2022/11/23 11:50:58;;;;;;;0.20;0.10;;;22.20;54.50;;;;;;5061207;28;20040;-54
2022/11/23 11:53:33;;;;;;;3.05;0.00;;;22.30;54.20;;;;;;5054558;28;20157;-49
2022/11/23 11:56:11;;;;;;;0.60;0.10;;;22.30;53.70;;;;;;5055877;28;20086;-52
2022/11/23 11:58:40;;;;;;;1.70;0.10;;;22.30;53.50;;;;;;5065870;28;20072;-55
2022/11/23 12:01:16;;;;;;;1.05;0.08;;;22.40;53.90;;;;;;5064824;28;20608;-54
2022/11/23 12:03:47;;;;;;;;;;;22.40;53.80;;;;;;5068538;28;20044;-57
2022/11/23 12:06:21;;;;;;;0.38;0.03;;;22.40;54.00;;;;;;5063186;28;19929;-56
2022/11/23 12:08:56;;;;;;;0.63;0.00;;;22.40;53.90;;;;;;5068991;28;20119;-54
2022/11/23 12:11:23;;;;;;;0.30;0.08;;;22.50;53.90;;;;;;5070549;28;20162;-56
2022/11/23 12:14:03;;;;;;;0.45;0.43;;;22.50;53.80;;;;;;5068641;28;20590;-59
2022/11/23 12:16:38;;;;;;;2.45;0.20;;;22.60;54.00;;;;;;5064039;28;20607;-62
2022/11/23 12:19:13;;;;;;;2.83;0.38;;;22.60;54.00;;;;;;5054910;28;20536;-60
2022/11/23 12:22:11;;;;;;;0.25;0.00;;;22.60;54.60;;;;;;5069531;28;20066;-61
2022/11/23 12:25:13;;;;;;;1.85;0.10;;;22.70;54.80;;;;;;5062498;28;20531;-53
2022/11/23 12:27:54;;;;;;;0.25;0.10;;;22.80;55.10;;;;;;5064735;28;20040;-61
2022/11/23 12:30:25;;;;;;;4.13;0.35;;;22.90;55.60;;;;;;5062183;28;20040;-61
2022/11/23 12:33:26;;;;;;;1.73;0.13;;;23.00;55.70;;;;;;5050606;28;20699;-49
2022/11/23 12:36:08;;;;;;;0.47;0.10;;;23.20;55.60;;;;;;5061617;28;20127;-47
2022/11/23 12:38:44;;;;;;;5.63;0.45;;;23.30;55.60;;;;;;5069800;28;20047;-49
2022/11/23 12:41:39;;;;;;;2.03;0.10;;;23.40;54.50;;;;;;5068166;28;20375;-48
2022/11/23 12:44:39;;;;;;;22.58;1.98;;;23.60;54.10;;;;;;5048780;28;20497;-48
2022/11/23 12:47:15;;;;;;;4.03;0.20;;;23.60;54.10;;;;;;5058288;28;20051;-56
2022/11/23 12:49:44;;;;;;;;;;;23.70;53.40;;;;;;5065177;28;20090;-61
2022/11/23 12:52:28;;;;;;;5.53;0.30;;;23.80;53.70;;;;;;5068926;28;19977;-62
2022/11/23 12:55:02;;;;;;;2.28;0.17;;;23.80;54.10;;;;;;5070243;28;20087;-61
2022/11/23 12:57:36;;;;;;;3.65;0.30;;;23.90;54.00;;;;;;5069959;28;20135;-61
2022/11/23 13:00:07;;;;;;;3.03;0.52;;;23.90;53.90;;;;;;5070332;28;20525;-61
2022/11/23 13:03:10;;;;;;;1.00;0.00;;;24.00;53.90;;;;;;5070211;28;20527;-61
2022/11/23 13:06:04;;;;;;;5.10;1.10;;;24.00;53.70;;;;;;5068801;28;20078;-61
2022/11/23 13:09:01;;;;;;;9.18;0.10;;;24.10;53.10;;;;;;5070336;28;20048;-61